Wind From: 11-12-2017 06:00 Until: 12-12-2017 06:00 warning for: Wind Level: Orange info button

Power and phone distribution networks may be disrupted for relatively long periods., Roofs and chimneys can be damaged. , Tree branches may break. , Vehicles can be deported. , Traffic may be disrupted, particularly on secondary roads in forest areas. Limit your trips. , Limit your speed in highway driving, especially if you drive a vehicle or hitch sensitive to wind. , Do not go for walks in forests or along the coast., In town, be vigilant against possible falling objects., Do not work on roofs and do not touch any electrical line fallen on the ground., Store or secure sensitive objects to wind or likely to be damaged., Always install power generators outside buildings. 


Meteo18 Weather Cam more information Meteo18 Weather Cam


Thunder radar more information blitzortung!


Rain radar more information rain snow radar


Visit our other weather sites:

Template documentation
and downloads

And another site



Weather Underground History page Text

Daily Summary for January 4, 2017 Units:  Both    English   Metric
« Previous Day
Next Day »
Daily Weekly Monthly Yearly Custom
  High: Low: Average:
Temperature: 36.3 °F /  2.4 °C 27.5 °F /  -2.5 °C 30.6 °F /  -0.8 °C
Dew Point: 35.6 °F /  2.0 °C 26.8 °F /  -2.9 °C 29.8 °F /  -1.2 °C
Humidity: 98 % 95 % 97 %
Wind Speed: 12 mph /  19.3 km/h - 3.7 mph /  6 km/h
Wind Gust: 16 mph /  25.7 km/h - -
Wind:- - WSW
Pressure: 30.4 in /  1030.4 hPa 30.3 in /  1024.9 hPa -
Precipitation: 0.02 in /  0.5 mm    
Historical Graphs
 
 
Tabular Data for January 4, 2017
Time Temperature Dew Point Pressure Wind Wind Speed Wind Gust Humidity Rainfall Rate (Hourly)
00:02 27.7 °F /  -2.4 °C 27 °F /  -2.8 °C 30.4 in /  1030.4 hPa SW 3 mph /  4.8 km/h 7 mph /  11.3 km/h 97 % 0 in /  0.0 mm
00:07 27.9 °F /  -2.3 °C 27.1 °F /  -2.7 °C 30.4 in /  1030.4 hPa SSW 4 mph /  6.4 km/h 6 mph /  9.7 km/h 97 % 0 in /  0.0 mm
00:12 28 °F /  -2.2 °C 27.3 °F /  -2.6 °C 30.4 in /  1030.4 hPa WSW 5 mph /  8.0 km/h 8 mph /  12.9 km/h 97 % 0 in /  0.0 mm
00:17 28 °F /  -2.2 °C 27.3 °F /  -2.6 °C 30.4 in /  1030.0 hPa SSW 3 mph /  4.8 km/h 8 mph /  12.9 km/h 97 % 0 in /  0.0 mm
00:22 28 °F /  -2.2 °C 27.3 °F /  -2.6 °C 30.4 in /  1030.0 hPa WSW 2 mph /  3.2 km/h 8 mph /  12.9 km/h 97 % 0 in /  0.0 mm
00:32 28.2 °F /  -2.1 °C 27.5 °F /  -2.5 °C 30.4 in /  1030.0 hPa Calm   6 mph /  9.7 km/h 97 % 0 in /  0.0 mm
00:42 28.2 °F /  -2.1 °C 27.5 °F /  -2.5 °C 30.4 in /  1030.0 hPa WSW 1 mph /  1.6 km/h 6 mph /  9.7 km/h 97 % 0 in /  0.0 mm
00:47 28.4 °F /  -2.0 °C 27.7 °F /  -2.4 °C 30.4 in /  1030.0 hPa SW 4 mph /  6.4 km/h 5 mph /  8.0 km/h 97 % 0 in /  0.0 mm
00:52 28.6 °F /  -1.9 °C 27.9 °F /  -2.3 °C 30.4 in /  1030.0 hPa SW 2 mph /  3.2 km/h 5 mph /  8.0 km/h 97 % 0 in /  0.0 mm
00:57 28.6 °F /  -1.9 °C 27.9 °F /  -2.3 °C 30.4 in /  1030.0 hPa West 4 mph /  6.4 km/h 5 mph /  8.0 km/h 97 % 0 in /  0.0 mm
01:02 28.6 °F /  -1.9 °C 27.9 °F /  -2.3 °C 30.4 in /  1029.7 hPa SW 1 mph /  1.6 km/h 5 mph /  8.0 km/h 97 % 0 in /  0.0 mm
01:12 28.6 °F /  -1.9 °C 27.9 °F /  -2.3 °C 30.4 in /  1029.7 hPa SW 1 mph /  1.6 km/h 5 mph /  8.0 km/h 97 % 0 in /  0.0 mm
01:17 28.4 °F /  -2.0 °C 27.7 °F /  -2.4 °C 30.4 in /  1029.3 hPa WSW 3 mph /  4.8 km/h 5 mph /  8.0 km/h 97 % 0 in /  0.0 mm
01:22 28.2 °F /  -2.1 °C 27.5 °F /  -2.5 °C 30.4 in /  1029.3 hPa SW 4 mph /  6.4 km/h 5 mph /  8.0 km/h 97 % 0 in /  0.0 mm
01:27 28.2 °F /  -2.1 °C 27.5 °F /  -2.5 °C 30.4 in /  1029.3 hPa Calm   5 mph /  8.0 km/h 97 % 0 in /  0.0 mm
01:32 28.2 °F /  -2.1 °C 27.5 °F /  -2.5 °C 30.4 in /  1029.3 hPa WSW 2 mph /  3.2 km/h 6 mph /  9.7 km/h 97 % 0 in /  0.0 mm
01:37 28.2 °F /  -2.1 °C 27.5 °F /  -2.5 °C 30.4 in /  1029.3 hPa West 2 mph /  3.2 km/h 6 mph /  9.7 km/h 97 % 0 in /  0.0 mm
01:42 28.2 °F /  -2.1 °C 27.5 °F /  -2.5 °C 30.4 in /  1029.3 hPa West 6 mph /  9.7 km/h 6 mph /  9.7 km/h 97 % 0 in /  0.0 mm
01:47 28 °F /  -2.2 °C 27.3 °F /  -2.6 °C 30.4 in /  1029.3 hPa WSW 5 mph /  8.0 km/h 8 mph /  12.9 km/h 97 % 0 in /  0.0 mm
01:52 28 °F /  -2.2 °C 27.3 °F /  -2.6 °C 30.4 in /  1029.3 hPa SW 5 mph /  8.0 km/h 8 mph /  12.9 km/h 97 % 0 in /  0.0 mm
01:57 28 °F /  -2.2 °C 27.3 °F /  -2.6 °C 30.4 in /  1029.3 hPa SW 8 mph /  12.9 km/h 8 mph /  12.9 km/h 97 % 0 in /  0.0 mm
02:02 28 °F /  -2.2 °C 27.3 °F /  -2.6 °C 30.4 in /  1029.3 hPa SW 6 mph /  9.7 km/h 10 mph /  16.1 km/h 97 % 0 in /  0.0 mm
02:07 28 °F /  -2.2 °C 27.3 °F /  -2.6 °C 30.4 in /  1029.3 hPa WSW 2 mph /  3.2 km/h 10 mph /  16.1 km/h 97 % 0 in /  0.0 mm
02:12 28 °F /  -2.2 °C 27.3 °F /  -2.6 °C 30.4 in /  1029.0 hPa WSW 1 mph /  1.6 km/h 9 mph /  14.5 km/h 97 % 0 in /  0.0 mm
02:17 28 °F /  -2.2 °C 27.3 °F /  -2.6 °C 30.4 in /  1029.0 hPa WSW 2 mph /  3.2 km/h 7 mph /  11.3 km/h 97 % 0 in /  0.0 mm
02:22 28 °F /  -2.2 °C 27.3 °F /  -2.6 °C 30.4 in /  1029.3 hPa SW 4 mph /  6.4 km/h 6 mph /  9.7 km/h 97 % 0 in /  0.0 mm
02:27 28 °F /  -2.2 °C 27.3 °F /  -2.6 °C 30.4 in /  1029.0 hPa SW 2 mph /  3.2 km/h 6 mph /  9.7 km/h 97 % 0 in /  0.0 mm
02:32 28 °F /  -2.2 °C 27.3 °F /  -2.6 °C 30.4 in /  1028.7 hPa SW 8 mph /  12.9 km/h 8 mph /  12.9 km/h 97 % 0 in /  0.0 mm
02:37 28 °F /  -2.2 °C 27.3 °F /  -2.6 °C 30.4 in /  1029.0 hPa WSW 5 mph /  8.0 km/h 8 mph /  12.9 km/h 97 % 0 in /  0.0 mm
02:42 28 °F /  -2.2 °C 27.3 °F /  -2.6 °C 30.4 in /  1029.0 hPa WSW 3 mph /  4.8 km/h 8 mph /  12.9 km/h 97 % 0 in /  0.0 mm
02:47 28.2 °F /  -2.1 °C 27.5 °F /  -2.5 °C 30.4 in /  1029.0 hPa SSW 3 mph /  4.8 km/h 8 mph /  12.9 km/h 97 % 0 in /  0.0 mm
02:52 28.2 °F /  -2.1 °C 27.5 °F /  -2.5 °C 30.4 in /  1029.0 hPa SW 4 mph /  6.4 km/h 8 mph /  12.9 km/h 97 % 0 in /  0.0 mm
02:57 28.2 °F /  -2.1 °C 27.5 °F /  -2.5 °C 30.4 in /  1029.3 hPa SW 2 mph /  3.2 km/h 8 mph /  12.9 km/h 97 % 0 in /  0.0 mm
03:02 28.2 °F /  -2.1 °C 27.5 °F /  -2.5 °C 30.4 in /  1029.3 hPa WSW 1 mph /  1.6 km/h 7 mph /  11.3 km/h 97 % 0 in /  0.0 mm
03:07 28.2 °F /  -2.1 °C 27.5 °F /  -2.5 °C 30.4 in /  1029.3 hPa SW 2 mph /  3.2 km/h 5 mph /  8.0 km/h 97 % 0 in /  0.0 mm
03:12 28.2 °F /  -2.1 °C 27.5 °F /  -2.5 °C 30.4 in /  1029.3 hPa WSW 2 mph /  3.2 km/h 5 mph /  8.0 km/h 97 % 0 in /  0.0 mm
03:17 28.2 °F /  -2.1 °C 27.5 °F /  -2.5 °C 30.4 in /  1029.3 hPa WSW 3 mph /  4.8 km/h 4 mph /  6.4 km/h 97 % 0 in /  0.0 mm
03:22 28 °F /  -2.2 °C 27.3 °F /  -2.6 °C 30.4 in /  1029.3 hPa West 4 mph /  6.4 km/h 4 mph /  6.4 km/h 97 % 0 in /  0.0 mm
03:27 27.9 °F /  -2.3 °C 27.1 °F /  -2.7 °C 30.4 in /  1029.3 hPa West 3 mph /  4.8 km/h 6 mph /  9.7 km/h 97 % 0 in /  0.0 mm
03:32 27.7 °F /  -2.4 °C 27 °F /  -2.8 °C 30.4 in /  1029.3 hPa West 3 mph /  4.8 km/h 7 mph /  11.3 km/h 97 % 0 in /  0.0 mm
03:37 27.7 °F /  -2.4 °C 27 °F /  -2.8 °C 30.4 in /  1029.3 hPa SW 5 mph /  8.0 km/h 7 mph /  11.3 km/h 97 % 0 in /  0.0 mm
03:42 27.7 °F /  -2.4 °C 27 °F /  -2.8 °C 30.4 in /  1029.3 hPa SSW 4 mph /  6.4 km/h 5 mph /  8.0 km/h 97 % 0 in /  0.0 mm
03:52 27.7 °F /  -2.4 °C 27 °F /  -2.8 °C 30.4 in /  1029.0 hPa SW 3 mph /  4.8 km/h 5 mph /  8.0 km/h 97 % 0 in /  0.0 mm
03:57 27.7 °F /  -2.4 °C 27 °F /  -2.8 °C 30.4 in /  1029.0 hPa SW 3 mph /  4.8 km/h 5 mph /  8.0 km/h 97 % 0 in /  0.0 mm
04:02 27.7 °F /  -2.4 °C 27 °F /  -2.8 °C 30.4 in /  1028.7 hPa Calm   5 mph /  8.0 km/h 97 % 0 in /  0.0 mm
04:07 27.7 °F /  -2.4 °C 27 °F /  -2.8 °C 30.4 in /  1028.7 hPa WSW 3 mph /  4.8 km/h 5 mph /  8.0 km/h 97 % 0 in /  0.0 mm
04:12 27.7 °F /  -2.4 °C 27 °F /  -2.8 °C 30.4 in /  1028.7 hPa WSW 1 mph /  1.6 km/h 5 mph /  8.0 km/h 97 % 0 in /  0.0 mm
04:17 27.9 °F /  -2.3 °C 27.1 °F /  -2.7 °C 30.4 in /  1028.7 hPa West 1 mph /  1.6 km/h 5 mph /  8.0 km/h 97 % 0 in /  0.0 mm
04:22 27.9 °F /  -2.3 °C 27.1 °F /  -2.7 °C 30.4 in /  1028.7 hPa WSW 2 mph /  3.2 km/h 5 mph /  8.0 km/h 97 % 0 in /  0.0 mm
04:27 27.9 °F /  -2.3 °C 27.1 °F /  -2.7 °C 30.4 in /  1028.7 hPa West 2 mph /  3.2 km/h 5 mph /  8.0 km/h 97 % 0 in /  0.0 mm
04:32 27.9 °F /  -2.3 °C 27.1 °F /  -2.7 °C 30.4 in /  1028.7 hPa SW 3 mph /  4.8 km/h 5 mph /  8.0 km/h 97 % 0 in /  0.0 mm
04:37 27.9 °F /  -2.3 °C 27.1 °F /  -2.7 °C 30.4 in /  1028.7 hPa WSW 1 mph /  1.6 km/h 7 mph /  11.3 km/h 97 % 0 in /  0.0 mm
04:42 27.9 °F /  -2.3 °C 27.1 °F /  -2.7 °C 30.4 in /  1028.7 hPa SW 2 mph /  3.2 km/h 7 mph /  11.3 km/h 97 % 0 in /  0.0 mm
04:47 27.9 °F /  -2.3 °C 27.1 °F /  -2.7 °C 30.4 in /  1028.7 hPa WNW 2 mph /  3.2 km/h 8 mph /  12.9 km/h 97 % 0 in /  0.0 mm
04:52 27.9 °F /  -2.3 °C 27.1 °F /  -2.7 °C 30.4 in /  1028.7 hPa West 3 mph /  4.8 km/h 8 mph /  12.9 km/h 97 % 0 in /  0.0 mm
04:57 27.7 °F /  -2.4 °C 27 °F /  -2.8 °C 30.4 in /  1028.7 hPa WSW 3 mph /  4.8 km/h 7 mph /  11.3 km/h 97 % 0 in /  0.0 mm
05:02 27.7 °F /  -2.4 °C 27 °F /  -2.8 °C 30.4 in /  1028.7 hPa SSW 2 mph /  3.2 km/h 7 mph /  11.3 km/h 97 % 0 in /  0.0 mm
05:07 27.7 °F /  -2.4 °C 27 °F /  -2.8 °C 30.4 in /  1028.7 hPa SSW 3 mph /  4.8 km/h 8 mph /  12.9 km/h 97 % 0 in /  0.0 mm
05:12 27.7 °F /  -2.4 °C 27 °F /  -2.8 °C 30.4 in /  1028.3 hPa SW 6 mph /  9.7 km/h 8 mph /  12.9 km/h 97 % 0 in /  0.0 mm
05:17 27.7 °F /  -2.4 °C 27 °F /  -2.8 °C 30.4 in /  1028.3 hPa SSW 3 mph /  4.8 km/h 8 mph /  12.9 km/h 97 % 0 in /  0.0 mm
05:22 27.7 °F /  -2.4 °C 27 °F /  -2.8 °C 30.4 in /  1028.3 hPa SSW 3 mph /  4.8 km/h 10 mph /  16.1 km/h 97 % 0 in /  0.0 mm
05:32 27.7 °F /  -2.4 °C 27 °F /  -2.8 °C 30.4 in /  1028.3 hPa SW 4 mph /  6.4 km/h 9 mph /  14.5 km/h 97 % 0 in /  0.0 mm
05:37 27.9 °F /  -2.3 °C 27.1 °F /  -2.7 °C 30.4 in /  1028.3 hPa SW 2 mph /  3.2 km/h 9 mph /  14.5 km/h 97 % 0 in /  0.0 mm
05:42 27.9 °F /  -2.3 °C 27.1 °F /  -2.7 °C 30.4 in /  1028.3 hPa SSW 4 mph /  6.4 km/h 9 mph /  14.5 km/h 97 % 0 in /  0.0 mm
05:47 27.9 °F /  -2.3 °C 27.1 °F /  -2.7 °C 30.4 in /  1028.3 hPa SSW 5 mph /  8.0 km/h 8 mph /  12.9 km/h 97 % 0 in /  0.0 mm
05:52 27.9 °F /  -2.3 °C 27.1 °F /  -2.7 °C 30.4 in /  1028.3 hPa WSW 2 mph /  3.2 km/h 8 mph /  12.9 km/h 97 % 0 in /  0.0 mm
05:57 27.9 °F /  -2.3 °C 27.1 °F /  -2.7 °C 30.4 in /  1028.0 hPa WSW 2 mph /  3.2 km/h 8 mph /  12.9 km/h 97 % 0 in /  0.0 mm
06:02 27.9 °F /  -2.3 °C 27.1 °F /  -2.7 °C 30.4 in /  1028.0 hPa WSW 4 mph /  6.4 km/h 7 mph /  11.3 km/h 97 % 0 in /  0.0 mm
06:07 27.9 °F /  -2.3 °C 27.1 °F /  -2.7 °C 30.4 in /  1028.0 hPa SSW 2 mph /  3.2 km/h 7 mph /  11.3 km/h 97 % 0 in /  0.0 mm
06:12 27.9 °F /  -2.3 °C 27.1 °F /  -2.7 °C 30.4 in /  1028.0 hPa SW 3 mph /  4.8 km/h 6 mph /  9.7 km/h 97 % 0 in /  0.0 mm
06:17 28 °F /  -2.2 °C 27.3 °F /  -2.6 °C 30.4 in /  1027.7 hPa SW 6 mph /  9.7 km/h 8 mph /  12.9 km/h 97 % 0 in /  0.0 mm
06:22 27.9 °F /  -2.3 °C 27.1 °F /  -2.7 °C 30.4 in /  1027.7 hPa SW 3 mph /  4.8 km/h 9 mph /  14.5 km/h 97 % 0 in /  0.0 mm
06:32 27.7 °F /  -2.4 °C 27 °F /  -2.8 °C 30.4 in /  1027.7 hPa SW 2 mph /  3.2 km/h 9 mph /  14.5 km/h 97 % 0 in /  0.0 mm
06:37 27.9 °F /  -2.3 °C 27.1 °F /  -2.7 °C 30.4 in /  1027.7 hPa SW 1 mph /  1.6 km/h 8 mph /  12.9 km/h 97 % 0 in /  0.0 mm
06:42 27.9 °F /  -2.3 °C 27.1 °F /  -2.7 °C 30.4 in /  1027.7 hPa WNW 3 mph /  4.8 km/h 7 mph /  11.3 km/h 97 % 0 in /  0.0 mm
06:47 27.7 °F /  -2.4 °C 27 °F /  -2.8 °C 30.4 in /  1027.7 hPa SW 5 mph /  8.0 km/h 7 mph /  11.3 km/h 97 % 0 in /  0.0 mm
06:57 27.7 °F /  -2.4 °C 27 °F /  -2.8 °C 30.4 in /  1027.7 hPa SW 6 mph /  9.7 km/h 8 mph /  12.9 km/h 97 % 0 in /  0.0 mm
07:02 27.7 °F /  -2.4 °C 27 °F /  -2.8 °C 30.4 in /  1027.7 hPa SW 3 mph /  4.8 km/h 8 mph /  12.9 km/h 97 % 0 in /  0.0 mm
07:07 27.7 °F /  -2.4 °C 27 °F /  -2.8 °C 30.4 in /  1027.7 hPa SW 2 mph /  3.2 km/h 9 mph /  14.5 km/h 97 % 0 in /  0.0 mm
07:12 27.7 °F /  -2.4 °C 27 °F /  -2.8 °C 30.4 in /  1027.7 hPa SW 4 mph /  6.4 km/h 9 mph /  14.5 km/h 97 % 0 in /  0.0 mm
07:17 27.9 °F /  -2.3 °C 27.1 °F /  -2.7 °C 30.4 in /  1027.7 hPa SW 1 mph /  1.6 km/h 8 mph /  12.9 km/h 97 % 0 in /  0.0 mm
07:22 27.9 °F /  -2.3 °C 27.1 °F /  -2.7 °C 30.4 in /  1027.7 hPa SSW 2 mph /  3.2 km/h 5 mph /  8.0 km/h 97 % 0 in /  0.0 mm
07:27 27.9 °F /  -2.3 °C 27.1 °F /  -2.7 °C 30.4 in /  1027.7 hPa SSW 4 mph /  6.4 km/h 8 mph /  12.9 km/h 97 % 0 in /  0.0 mm
07:32 27.7 °F /  -2.4 °C 27 °F /  -2.8 °C 30.4 in /  1027.7 hPa WSW 6 mph /  9.7 km/h 9 mph /  14.5 km/h 97 % 0 in /  0.0 mm
07:37 27.7 °F /  -2.4 °C 27 °F /  -2.8 °C 30.3 in /  1027.3 hPa WSW 5 mph /  8.0 km/h 10 mph /  16.1 km/h 97 % 0 in /  0.0 mm
07:42 27.7 °F /  -2.4 °C 27 °F /  -2.8 °C 30.3 in /  1027.3 hPa West 4 mph /  6.4 km/h 10 mph /  16.1 km/h 97 % 0 in /  0.0 mm
07:47 27.7 °F /  -2.4 °C 27 °F /  -2.8 °C 30.4 in /  1027.7 hPa West 3 mph /  4.8 km/h 10 mph /  16.1 km/h 97 % 0 in /  0.0 mm
07:52 27.7 °F /  -2.4 °C 27 °F /  -2.8 °C 30.4 in /  1027.7 hPa SW 5 mph /  8.0 km/h 10 mph /  16.1 km/h 97 % 0 in /  0.0 mm
07:57 27.7 °F /  -2.4 °C 27 °F /  -2.8 °C 30.4 in /  1027.7 hPa SW 3 mph /  4.8 km/h 8 mph /  12.9 km/h 97 % 0 in /  0.0 mm
08:02 27.5 °F /  -2.5 °C 26.8 °F /  -2.9 °C 30.4 in /  1027.7 hPa SW 6 mph /  9.7 km/h 8 mph /  12.9 km/h 97 % 0 in /  0.0 mm
08:07 27.7 °F /  -2.4 °C 27 °F /  -2.8 °C 30.4 in /  1027.7 hPa SW 4 mph /  6.4 km/h 8 mph /  12.9 km/h 97 % 0 in /  0.0 mm
08:12 27.7 °F /  -2.4 °C 27 °F /  -2.8 °C 30.4 in /  1027.7 hPa WSW 5 mph /  8.0 km/h 8 mph /  12.9 km/h 97 % 0 in /  0.0 mm
08:17 27.7 °F /  -2.4 °C 27 °F /  -2.8 °C 30.3 in /  1027.3 hPa WSW 7 mph /  11.3 km/h 7 mph /  11.3 km/h 97 % 0 in /  0.0 mm
08:22 27.9 °F /  -2.3 °C 27.1 °F /  -2.7 °C 30.3 in /  1027.3 hPa WSW 7 mph /  11.3 km/h 9 mph /  14.5 km/h 97 % 0 in /  0.0 mm
08:27 27.9 °F /  -2.3 °C 27.1 °F /  -2.7 °C 30.4 in /  1027.7 hPa WSW 6 mph /  9.7 km/h 9 mph /  14.5 km/h 97 % 0 in /  0.0 mm
08:32 27.9 °F /  -2.3 °C 27.1 °F /  -2.7 °C 30.4 in /  1027.7 hPa SW 5 mph /  8.0 km/h 9 mph /  14.5 km/h 97 % 0 in /  0.0 mm
08:37 27.9 °F /  -2.3 °C 27.1 °F /  -2.7 °C 30.4 in /  1027.7 hPa WSW 5 mph /  8.0 km/h 9 mph /  14.5 km/h 97 % 0 in /  0.0 mm
08:42 27.9 °F /  -2.3 °C 27.1 °F /  -2.7 °C 30.4 in /  1027.7 hPa WSW 4 mph /  6.4 km/h 7 mph /  11.3 km/h 97 % 0 in /  0.0 mm
08:47 28 °F /  -2.2 °C 27.3 °F /  -2.6 °C 30.4 in /  1027.7 hPa SW 7 mph /  11.3 km/h 7 mph /  11.3 km/h 97 % 0 in /  0.0 mm
08:57 28 °F /  -2.2 °C 27.3 °F /  -2.6 °C 30.4 in /  1027.7 hPa SW 4 mph /  6.4 km/h 9 mph /  14.5 km/h 97 % 0 in /  0.0 mm
09:02 28 °F /  -2.2 °C 27.3 °F /  -2.6 °C 30.4 in /  1027.7 hPa WSW 6 mph /  9.7 km/h 9 mph /  14.5 km/h 97 % 0 in /  0.0 mm
09:07 27.9 °F /  -2.3 °C 27.1 °F /  -2.7 °C 30.4 in /  1027.7 hPa WSW 5 mph /  8.0 km/h 8 mph /  12.9 km/h 97 % 0 in /  0.0 mm
09:12 27.9 °F /  -2.3 °C 27.1 °F /  -2.7 °C 30.4 in /  1027.7 hPa WSW 4 mph /  6.4 km/h 8 mph /  12.9 km/h 97 % 0 in /  0.0 mm
09:17 27.9 °F /  -2.3 °C 27.1 °F /  -2.7 °C 30.4 in /  1027.7 hPa SW 4 mph /  6.4 km/h 8 mph /  12.9 km/h 97 % 0 in /  0.0 mm
09:22 27.9 °F /  -2.3 °C 27.1 °F /  -2.7 °C 30.4 in /  1027.7 hPa WSW 3 mph /  4.8 km/h 8 mph /  12.9 km/h 97 % 0 in /  0.0 mm
09:32 28 °F /  -2.2 °C 27.3 °F /  -2.6 °C 30.4 in /  1027.7 hPa SW 4 mph /  6.4 km/h 8 mph /  12.9 km/h 97 % 0 in /  0.0 mm
09:37 28 °F /  -2.2 °C 27.3 °F /  -2.6 °C 30.4 in /  1027.7 hPa SW 4 mph /  6.4 km/h 8 mph /  12.9 km/h 97 % 0 in /  0.0 mm
09:42 28 °F /  -2.2 °C 27.3 °F /  -2.6 °C 30.4 in /  1027.7 hPa Calm   8 mph /  12.9 km/h 97 % 0 in /  0.0 mm
09:52 28 °F /  -2.2 °C 27.3 °F /  -2.6 °C 30.4 in /  1027.7 hPa WSW 2 mph /  3.2 km/h 8 mph /  12.9 km/h 97 % 0 in /  0.0 mm
09:57 28 °F /  -2.2 °C 27.3 °F /  -2.6 °C 30.4 in /  1027.7 hPa WSW 1 mph /  1.6 km/h 8 mph /  12.9 km/h 97 % 0 in /  0.0 mm
10:02 28 °F /  -2.2 °C 27.3 °F /  -2.6 °C 30.4 in /  1027.7 hPa SW 3 mph /  4.8 km/h 8 mph /  12.9 km/h 97 % 0 in /  0.0 mm
10:07 28 °F /  -2.2 °C 27.3 °F /  -2.6 °C 30.4 in /  1027.7 hPa West 2 mph /  3.2 km/h 7 mph /  11.3 km/h 97 % 0 in /  0.0 mm
10:12 28.2 °F /  -2.1 °C 27.5 °F /  -2.5 °C 30.4 in /  1027.7 hPa SW 2 mph /  3.2 km/h 5 mph /  8.0 km/h 97 % 0 in /  0.0 mm
10:17 28.2 °F /  -2.1 °C 27.5 °F /  -2.5 °C 30.4 in /  1027.7 hPa WSW 2 mph /  3.2 km/h 5 mph /  8.0 km/h 97 % 0 in /  0.0 mm
10:22 28.2 °F /  -2.1 °C 27.5 °F /  -2.5 °C 30.4 in /  1027.7 hPa Calm   5 mph /  8.0 km/h 97 % 0 in /  0.0 mm
10:27 28.2 °F /  -2.1 °C 27.5 °F /  -2.5 °C 30.4 in /  1027.7 hPa SW 2 mph /  3.2 km/h 5 mph /  8.0 km/h 97 % 0 in /  0.0 mm
10:32 28.4 °F /  -2.0 °C 27.7 °F /  -2.4 °C 30.4 in /  1027.7 hPa WSW 5 mph /  8.0 km/h 5 mph /  8.0 km/h 97 % 0 in /  0.0 mm
10:37 28.4 °F /  -2.0 °C 27.7 °F /  -2.4 °C 30.4 in /  1027.7 hPa SW 7 mph /  11.3 km/h 7 mph /  11.3 km/h 97 % 0 in /  0.0 mm
10:42 28.4 °F /  -2.0 °C 27.7 °F /  -2.4 °C 30.4 in /  1027.7 hPa Calm   9 mph /  14.5 km/h 97 % 0 in /  0.0 mm
10:47 28.6 °F /  -1.9 °C 27.9 °F /  -2.3 °C 30.4 in /  1027.7 hPa Calm   9 mph /  14.5 km/h 97 % 0 in /  0.0 mm
10:52 28.6 °F /  -1.9 °C 27.9 °F /  -2.3 °C 30.4 in /  1027.7 hPa WSW 4 mph /  6.4 km/h 9 mph /  14.5 km/h 97 % 0 in /  0.0 mm
10:57 28.6 °F /  -1.9 °C 27.9 °F /  -2.3 °C 30.4 in /  1027.7 hPa WSW 9 mph /  14.5 km/h 9 mph /  14.5 km/h 97 % 0 in /  0.0 mm
11:02 28.8 °F /  -1.8 °C 28 °F /  -2.2 °C 30.4 in /  1027.7 hPa SW 2 mph /  3.2 km/h 9 mph /  14.5 km/h 97 % 0 in /  0.0 mm
11:07 28.8 °F /  -1.8 °C 28 °F /  -2.2 °C 30.4 in /  1027.7 hPa West 6 mph /  9.7 km/h 9 mph /  14.5 km/h 97 % 0 in /  0.0 mm
11:12 28.8 °F /  -1.8 °C 28 °F /  -2.2 °C 30.4 in /  1027.7 hPa WSW 4 mph /  6.4 km/h 9 mph /  14.5 km/h 97 % 0 in /  0.0 mm
11:17 28.9 °F /  -1.7 °C 28.2 °F /  -2.1 °C 30.4 in /  1027.7 hPa WSW 5 mph /  8.0 km/h 9 mph /  14.5 km/h 97 % 0 in /  0.0 mm
11:22 28.9 °F /  -1.7 °C 28.2 °F /  -2.1 °C 30.4 in /  1027.7 hPa West 6 mph /  9.7 km/h 9 mph /  14.5 km/h 97 % 0 in /  0.0 mm
11:32 29.1 °F /  -1.6 °C 28.4 °F /  -2.0 °C 30.3 in /  1027.3 hPa West 6 mph /  9.7 km/h 10 mph /  16.1 km/h 97 % 0 in /  0.0 mm
11:37 29.1 °F /  -1.6 °C 28.4 °F /  -2.0 °C 30.3 in /  1027.3 hPa WSW 7 mph /  11.3 km/h 11 mph /  17.7 km/h 97 % 0 in /  0.0 mm
11:42 29.1 °F /  -1.6 °C 28.4 °F /  -2.0 °C 30.3 in /  1027.3 hPa West 7 mph /  11.3 km/h 11 mph /  17.7 km/h 97 % 0 in /  0.0 mm
11:47 29.1 °F /  -1.6 °C 28.4 °F /  -2.0 °C 30.3 in /  1027.0 hPa West 3 mph /  4.8 km/h 12 mph /  19.3 km/h 97 % 0 in /  0.0 mm
11:52 29.1 °F /  -1.6 °C 28.4 °F /  -2.0 °C 30.3 in /  1027.0 hPa West 4 mph /  6.4 km/h 12 mph /  19.3 km/h 97 % 0 in /  0.0 mm
12:02 29.5 °F /  -1.4 °C 28.8 °F /  -1.8 °C 30.3 in /  1027.3 hPa WSW 4 mph /  6.4 km/h 10 mph /  16.1 km/h 97 % 0 in /  0.0 mm
12:07 29.5 °F /  -1.4 °C 28.8 °F /  -1.8 °C 30.3 in /  1027.3 hPa WNW 1 mph /  1.6 km/h 9 mph /  14.5 km/h 97 % 0 in /  0.0 mm
12:12 29.5 °F /  -1.4 °C 28.8 °F /  -1.8 °C 30.3 in /  1027.3 hPa WNW 3 mph /  4.8 km/h 8 mph /  12.9 km/h 97 % 0 in /  0.0 mm
12:17 29.7 °F /  -1.3 °C 28.9 °F /  -1.7 °C 30.3 in /  1027.3 hPa West 2 mph /  3.2 km/h 6 mph /  9.7 km/h 97 % 0 in /  0.0 mm
12:22 29.5 °F /  -1.4 °C 28.8 °F /  -1.8 °C 30.3 in /  1027.3 hPa West 2 mph /  3.2 km/h 6 mph /  9.7 km/h 97 % 0 in /  0.0 mm
12:27 29.7 °F /  -1.3 °C 28.9 °F /  -1.7 °C 30.3 in /  1027.3 hPa WSW 1 mph /  1.6 km/h 6 mph /  9.7 km/h 97 % 0 in /  0.0 mm
12:32 29.7 °F /  -1.3 °C 28.9 °F /  -1.7 °C 30.3 in /  1027.0 hPa WSW 2 mph /  3.2 km/h 6 mph /  9.7 km/h 97 % 0 in /  0.0 mm
12:37 29.8 °F /  -1.2 °C 29.1 °F /  -1.6 °C 30.3 in /  1027.0 hPa WSW 3 mph /  4.8 km/h 4 mph /  6.4 km/h 97 % 0 in /  0.0 mm
12:42 29.8 °F /  -1.2 °C 29.1 °F /  -1.6 °C 30.3 in /  1027.0 hPa WSW 4 mph /  6.4 km/h 8 mph /  12.9 km/h 97 % 0 in /  0.0 mm
12:47 29.8 °F /  -1.2 °C 29.1 °F /  -1.6 °C 30.3 in /  1027.0 hPa West 3 mph /  4.8 km/h 8 mph /  12.9 km/h 97 % 0 in /  0.0 mm
12:57 30 °F /  -1.1 °C 29.3 °F /  -1.5 °C 30.3 in /  1026.6 hPa West 5 mph /  8.0 km/h 10 mph /  16.1 km/h 97 % 0 in /  0.0 mm
13:02 30 °F /  -1.1 °C 29.3 °F /  -1.5 °C 30.3 in /  1026.6 hPa West 2 mph /  3.2 km/h 10 mph /  16.1 km/h 97 % 0 in /  0.0 mm
13:07 30.2 °F /  -1.0 °C 29.5 °F /  -1.4 °C 30.3 in /  1026.6 hPa WSW 5 mph /  8.0 km/h 10 mph /  16.1 km/h 97 % 0 in /  0.0 mm
13:12 30.4 °F /  -0.9 °C 29.8 °F /  -1.2 °C 30.3 in /  1026.6 hPa WSW 7 mph /  11.3 km/h 9 mph /  14.5 km/h 98 % 0 in /  0.0 mm
13:17 30.4 °F /  -0.9 °C 29.7 °F /  -1.3 °C 30.3 in /  1026.6 hPa WNW 9 mph /  14.5 km/h 9 mph /  14.5 km/h 97 % 0 in /  0.0 mm
13:22 30.4 °F /  -0.9 °C 29.7 °F /  -1.3 °C 30.3 in /  1026.6 hPa West 7 mph /  11.3 km/h 10 mph /  16.1 km/h 97 % 0 in /  0.0 mm
13:27 30.4 °F /  -0.9 °C 29.7 °F /  -1.3 °C 30.3 in /  1026.6 hPa West 8 mph /  12.9 km/h 11 mph /  17.7 km/h 97 % 0 in /  0.0 mm
13:37 30.6 °F /  -0.8 °C 29.8 °F /  -1.2 °C 30.3 in /  1026.3 hPa West 6 mph /  9.7 km/h 11 mph /  17.7 km/h 97 % 0 in /  0.0 mm
13:42 30.6 °F /  -0.8 °C 29.8 °F /  -1.2 °C 30.3 in /  1026.0 hPa WSW 12 mph /  19.3 km/h 12 mph /  19.3 km/h 97 % 0 in /  0.0 mm
13:47 30.7 °F /  -0.7 °C 30 °F /  -1.1 °C 30.3 in /  1026.0 hPa West 7 mph /  11.3 km/h 16 mph /  25.7 km/h 97 % 0 in /  0.0 mm
13:57 30.9 °F /  -0.6 °C 30.2 °F /  -1.0 °C 30.3 in /  1025.6 hPa West 4 mph /  6.4 km/h 16 mph /  25.7 km/h 97 % 0 in /  0.0 mm
14:02 31.1 °F /  -0.5 °C 30.4 °F /  -0.9 °C 30.3 in /  1025.6 hPa West 11 mph /  17.7 km/h 14 mph /  22.5 km/h 97 % 0 in /  0.0 mm
14:12 31.3 °F /  -0.4 °C 30.6 °F /  -0.8 °C 30.3 in /  1025.6 hPa West 6 mph /  9.7 km/h 15 mph /  24.1 km/h 97 % 0 in /  0.0 mm
14:17 31.5 °F /  -0.3 °C 30.7 °F /  -0.7 °C 30.3 in /  1025.6 hPa West 6 mph /  9.7 km/h 15 mph /  24.1 km/h 97 % 0 in /  0.0 mm
14:27 31.6 °F /  -0.2 °C 30.9 °F /  -0.6 °C 30.3 in /  1024.9 hPa WSW 7 mph /  11.3 km/h 14 mph /  22.5 km/h 97 % 0 in /  0.0 mm
14:32 31.8 °F /  -0.1 °C 31.1 °F /  -0.5 °C 30.3 in /  1024.9 hPa West 6 mph /  9.7 km/h 14 mph /  22.5 km/h 97 % 0 in /  0.0 mm
14:42 31.8 °F /  -0.1 °C 30.7 °F /  -0.7 °C 30.3 in /  1024.9 hPa West 8 mph /  12.9 km/h 12 mph /  19.3 km/h 96 % 0 in /  0.0 mm
14:47 32 °F /  0.0 °C 30.9 °F /  -0.6 °C 30.3 in /  1024.9 hPa WSW 6 mph /  9.7 km/h 15 mph /  24.1 km/h 96 % 0 in /  0.0 mm
14:52 32.2 °F /  0.1 °C 31.1 °F /  -0.5 °C 30.3 in /  1024.9 hPa WNW 5 mph /  8.0 km/h 15 mph /  24.1 km/h 96 % 0 in /  0.0 mm
14:57 32.4 °F /  0.2 °C 31.3 °F /  -0.4 °C 30.3 in /  1024.9 hPa West 4 mph /  6.4 km/h 15 mph /  24.1 km/h 96 % 0 in /  0.0 mm
15:02 32.4 °F /  0.2 °C 31.1 °F /  -0.5 °C 30.3 in /  1024.9 hPa WNW 11 mph /  17.7 km/h 15 mph /  24.1 km/h 95 % 0 in /  0.0 mm
15:12 32.4 °F /  0.2 °C 31.1 °F /  -0.5 °C 30.3 in /  1024.9 hPa WNW 5 mph /  8.0 km/h 15 mph /  24.1 km/h 95 % 0 in /  0.0 mm
15:17 32.5 °F /  0.3 °C 31.3 °F /  -0.4 °C 30.3 in /  1025.3 hPa WNW 1 mph /  1.6 km/h 15 mph /  24.1 km/h 95 % 0 in /  0.0 mm
15:22 32.7 °F /  0.4 °C 31.5 °F /  -0.3 °C 30.3 in /  1025.3 hPa SW 2 mph /  3.2 km/h 15 mph /  24.1 km/h 95 % 0 in /  0.0 mm
15:27 32.7 °F /  0.4 °C 31.5 °F /  -0.3 °C 30.3 in /  1025.3 hPa West 1 mph /  1.6 km/h 10 mph /  16.1 km/h 95 % 0 in /  0.0 mm
15:32 32.7 °F /  0.4 °C 31.5 °F /  -0.3 °C 30.3 in /  1025.3 hPa WNW 1 mph /  1.6 km/h 6 mph /  9.7 km/h 95 % 0 in /  0.0 mm
15:37 32.9 °F /  0.5 °C 31.6 °F /  -0.2 °C 30.3 in /  1025.3 hPa WSW 1 mph /  1.6 km/h 6 mph /  9.7 km/h 95 % 0 in /  0.0 mm
15:42 33.1 °F /  0.6 °C 31.8 °F /  -0.1 °C 30.3 in /  1025.3 hPa West 1 mph /  1.6 km/h 8 mph /  12.9 km/h 95 % 0 in /  0.0 mm
15:47 33.1 °F /  0.6 °C 31.8 °F /  -0.1 °C 30.3 in /  1025.3 hPa West 4 mph /  6.4 km/h 8 mph /  12.9 km/h 95 % 0 in /  0.0 mm
15:52 33.3 °F /  0.7 °C 32 °F /  0.0 °C 30.3 in /  1025.3 hPa Calm   7 mph /  11.3 km/h 95 % 0 in /  0.0 mm
15:57 33.3 °F /  0.7 °C 32 °F /  0.0 °C 30.3 in /  1025.6 hPa WSW 3 mph /  4.8 km/h 6 mph /  9.7 km/h 95 % 0 in /  0.0 mm
16:17 33.3 °F /  0.7 °C 32 °F /  0.0 °C 30.3 in /  1025.3 hPa SSW 3 mph /  4.8 km/h 3 mph /  4.8 km/h 95 % 0 in /  0.0 mm
16:22 33.4 °F /  0.8 °C 32.4 °F /  0.2 °C 30.3 in /  1025.3 hPa SW 1 mph /  1.6 km/h 4 mph /  6.4 km/h 96 % 0 in /  0.0 mm
16:27 33.4 °F /  0.8 °C 32.4 °F /  0.2 °C 30.3 in /  1025.3 hPa SW 4 mph /  6.4 km/h 4 mph /  6.4 km/h 96 % 0 in /  0.0 mm
16:32 33.6 °F /  0.9 °C 32.5 °F /  0.3 °C 30.3 in /  1025.3 hPa SW 3 mph /  4.8 km/h 5 mph /  8.0 km/h 96 % 0 in /  0.0 mm
16:37 33.6 °F /  0.9 °C 32.5 °F /  0.3 °C 30.3 in /  1025.3 hPa WNW 1 mph /  1.6 km/h 5 mph /  8.0 km/h 96 % 0 in /  0.0 mm
16:47 33.8 °F /  1.0 °C 32.7 °F /  0.4 °C 30.3 in /  1025.3 hPa West 1 mph /  1.6 km/h 6 mph /  9.7 km/h 96 % 0 in /  0.0 mm
16:52 34 °F /  1.1 °C 32.9 °F /  0.5 °C 30.3 in /  1025.3 hPa West 2 mph /  3.2 km/h 6 mph /  9.7 km/h 96 % 0 in /  0.0 mm
17:02 34 °F /  1.1 °C 32.7 °F /  0.4 °C 30.3 in /  1025.3 hPa WSW 3 mph /  4.8 km/h 5 mph /  8.0 km/h 95 % 0 in /  0.0 mm
17:07 34.2 °F /  1.2 °C 32.9 °F /  0.5 °C 30.3 in /  1025.3 hPa WNW 3 mph /  4.8 km/h 7 mph /  11.3 km/h 95 % 0 in /  0.0 mm
17:27 34.5 °F /  1.4 °C 33.3 °F /  0.7 °C 30.3 in /  1025.3 hPa West 2 mph /  3.2 km/h 8 mph /  12.9 km/h 95 % 0 in /  0.0 mm
17:32 34.5 °F /  1.4 °C 33.3 °F /  0.7 °C 30.3 in /  1025.3 hPa WNW 2 mph /  3.2 km/h 8 mph /  12.9 km/h 95 % 0 in /  0.0 mm
17:37 34.5 °F /  1.4 °C 33.3 °F /  0.7 °C 30.3 in /  1025.3 hPa West 2 mph /  3.2 km/h 8 mph /  12.9 km/h 95 % 0 in /  0.0 mm
17:42 34.7 °F /  1.5 °C 33.4 °F /  0.8 °C 30.3 in /  1025.3 hPa WNW 2 mph /  3.2 km/h 10 mph /  16.1 km/h 95 % 0 in /  0.0 mm
17:52 34.7 °F /  1.5 °C 33.4 °F /  0.8 °C 30.3 in /  1025.3 hPa West 5 mph /  8.0 km/h 10 mph /  16.1 km/h 95 % 0 in /  0.0 mm
17:57 34.7 °F /  1.5 °C 33.4 °F /  0.8 °C 30.3 in /  1025.3 hPa WNW 9 mph /  14.5 km/h 9 mph /  14.5 km/h 95 % 0 in /  0.0 mm
18:07 34.7 °F /  1.5 °C 33.4 °F /  0.8 °C 30.3 in /  1025.3 hPa West 2 mph /  3.2 km/h 9 mph /  14.5 km/h 95 % 0 in /  0.0 mm
18:12 34.7 °F /  1.5 °C 33.4 °F /  0.8 °C 30.3 in /  1025.3 hPa NW 6 mph /  9.7 km/h 9 mph /  14.5 km/h 95 % 0.01 in /  0.3 mm
18:17 34.7 °F /  1.5 °C 33.4 °F /  0.8 °C 30.3 in /  1025.3 hPa WNW 10 mph /  16.1 km/h 13 mph /  20.9 km/h 95 % 0.01 in /  0.3 mm
18:22 34.7 °F /  1.5 °C 33.4 °F /  0.8 °C 30.3 in /  1025.3 hPa WSW 3 mph /  4.8 km/h 13 mph /  20.9 km/h 95 % 0.01 in /  0.3 mm
18:32 34.5 °F /  1.4 °C 33.3 °F /  0.7 °C 30.3 in /  1025.6 hPa WNW 8 mph /  12.9 km/h 11 mph /  17.7 km/h 95 % 0.01 in /  0.3 mm
18:37 34.5 °F /  1.4 °C 33.3 °F /  0.7 °C 30.3 in /  1025.6 hPa West 6 mph /  9.7 km/h 13 mph /  20.9 km/h 95 % 0.01 in /  0.3 mm
18:47 34.5 °F /  1.4 °C 33.3 °F /  0.7 °C 30.3 in /  1025.6 hPa West 8 mph /  12.9 km/h 13 mph /  20.9 km/h 95 % 0.01 in /  0.3 mm
18:52 34.5 °F /  1.4 °C 33.4 °F /  0.8 °C 30.3 in /  1025.6 hPa WNW 9 mph /  14.5 km/h 13 mph /  20.9 km/h 96 % 0.01 in /  0.3 mm
18:57 34.5 °F /  1.4 °C 33.3 °F /  0.7 °C 30.3 in /  1025.6 hPa West 5 mph /  8.0 km/h 13 mph /  20.9 km/h 95 % 0.01 in /  0.3 mm
19:07 34.5 °F /  1.4 °C 33.4 °F /  0.8 °C 30.3 in /  1025.6 hPa NW 4 mph /  6.4 km/h 13 mph /  20.9 km/h 96 % 0 in /  0.0 mm
19:12 34.5 °F /  1.4 °C 33.4 °F /  0.8 °C 30.3 in /  1025.6 hPa NW 8 mph /  12.9 km/h 15 mph /  24.1 km/h 96 % 0 in /  0.0 mm
19:22 34.5 °F /  1.4 °C 33.4 °F /  0.8 °C 30.3 in /  1025.6 hPa WNW 5 mph /  8.0 km/h 15 mph /  24.1 km/h 96 % 0 in /  0.0 mm
19:32 34.5 °F /  1.4 °C 33.4 °F /  0.8 °C 30.3 in /  1025.6 hPa WNW 3 mph /  4.8 km/h 12 mph /  19.3 km/h 96 % 0 in /  0.0 mm
19:37 34.5 °F /  1.4 °C 33.4 °F /  0.8 °C 30.3 in /  1025.6 hPa West 4 mph /  6.4 km/h 11 mph /  17.7 km/h 96 % 0 in /  0.0 mm
19:42 34.7 °F /  1.5 °C 33.6 °F /  0.9 °C 30.3 in /  1025.6 hPa West 8 mph /  12.9 km/h 11 mph /  17.7 km/h 96 % 0 in /  0.0 mm
19:47 34.7 °F /  1.5 °C 33.6 °F /  0.9 °C 30.3 in /  1025.6 hPa NW 2 mph /  3.2 km/h 10 mph /  16.1 km/h 96 % 0 in /  0.0 mm
19:52 34.9 °F /  1.6 °C 33.8 °F /  1.0 °C 30.3 in /  1025.6 hPa West 4 mph /  6.4 km/h 10 mph /  16.1 km/h 96 % 0.01 in /  0.3 mm
20:02 34.9 °F /  1.6 °C 33.8 °F /  1.0 °C 30.3 in /  1026.0 hPa WNW 8 mph /  12.9 km/h 10 mph /  16.1 km/h 96 % 0.01 in /  0.3 mm
20:07 34.9 °F /  1.6 °C 33.8 °F /  1.0 °C 30.3 in /  1026.0 hPa WNW 7 mph /  11.3 km/h 10 mph /  16.1 km/h 96 % 0.01 in /  0.3 mm
20:12 35.1 °F /  1.7 °C 34 °F /  1.1 °C 30.3 in /  1026.0 hPa NW 5 mph /  8.0 km/h 10 mph /  16.1 km/h 96 % 0.01 in /  0.3 mm
20:17 35.1 °F /  1.7 °C 34 °F /  1.1 °C 30.3 in /  1026.0 hPa NW 6 mph /  9.7 km/h 11 mph /  17.7 km/h 96 % 0.01 in /  0.3 mm
20:22 34.9 °F /  1.6 °C 33.8 °F /  1.0 °C 30.3 in /  1026.0 hPa WNW 6 mph /  9.7 km/h 11 mph /  17.7 km/h 96 % 0.01 in /  0.3 mm
20:32 35.1 °F /  1.7 °C 34 °F /  1.1 °C 30.3 in /  1026.0 hPa WNW 3 mph /  4.8 km/h 10 mph /  16.1 km/h 96 % 0.01 in /  0.3 mm
20:37 35.1 °F /  1.7 °C 34 °F /  1.1 °C 30.3 in /  1026.0 hPa WNW 7 mph /  11.3 km/h 9 mph /  14.5 km/h 96 % 0.01 in /  0.3 mm
20:42 35.1 °F /  1.7 °C 34 °F /  1.1 °C 30.3 in /  1026.0 hPa WNW 1 mph /  1.6 km/h 11 mph /  17.7 km/h 96 % 0.01 in /  0.3 mm
20:47 35.1 °F /  1.7 °C 34 °F /  1.1 °C 30.3 in /  1026.3 hPa WNW 9 mph /  14.5 km/h 11 mph /  17.7 km/h 96 % 0 in /  0.0 mm
20:57 35.2 °F /  1.8 °C 34.2 °F /  1.2 °C 30.3 in /  1026.3 hPa WNW 7 mph /  11.3 km/h 10 mph /  16.1 km/h 96 % 0 in /  0.0 mm
21:02 35.2 °F /  1.8 °C 34.2 °F /  1.2 °C 30.3 in /  1026.3 hPa West 5 mph /  8.0 km/h 10 mph /  16.1 km/h 96 % 0 in /  0.0 mm
21:07 35.2 °F /  1.8 °C 34.2 °F /  1.2 °C 30.3 in /  1026.0 hPa West 3 mph /  4.8 km/h 10 mph /  16.1 km/h 96 % 0 in /  0.0 mm
21:12 35.4 °F /  1.9 °C 34.3 °F /  1.3 °C 30.3 in /  1026.3 hPa WNW 5 mph /  8.0 km/h 9 mph /  14.5 km/h 96 % 0 in /  0.0 mm
21:22 35.4 °F /  1.9 °C 34.3 °F /  1.3 °C 30.3 in /  1026.6 hPa NW 3 mph /  4.8 km/h 9 mph /  14.5 km/h 96 % 0 in /  0.0 mm
21:27 35.6 °F /  2.0 °C 34.5 °F /  1.4 °C 30.3 in /  1026.6 hPa WNW 3 mph /  4.8 km/h 9 mph /  14.5 km/h 96 % 0 in /  0.0 mm
21:32 35.6 °F /  2.0 °C 34.5 °F /  1.4 °C 30.3 in /  1026.6 hPa NW 2 mph /  3.2 km/h 8 mph /  12.9 km/h 96 % 0 in /  0.0 mm
21:37 35.6 °F /  2.0 °C 34.5 °F /  1.4 °C 30.3 in /  1026.6 hPa NW 5 mph /  8.0 km/h 9 mph /  14.5 km/h 96 % 0 in /  0.0 mm
21:42 35.8 °F /  2.1 °C 35.1 °F /  1.7 °C 30.3 in /  1026.6 hPa WNW 2 mph /  3.2 km/h 9 mph /  14.5 km/h 97 % 0.01 in /  0.3 mm
21:52 36 °F /  2.2 °C 35.2 °F /  1.8 °C 30.3 in /  1026.6 hPa WNW 4 mph /  6.4 km/h 8 mph /  12.9 km/h 97 % 0.01 in /  0.3 mm
21:57 36 °F /  2.2 °C 35.2 °F /  1.8 °C 30.3 in /  1027.0 hPa West 3 mph /  4.8 km/h 8 mph /  12.9 km/h 97 % 0.01 in /  0.3 mm
22:02 36 °F /  2.2 °C 35.2 °F /  1.8 °C 30.3 in /  1026.6 hPa WNW 3 mph /  4.8 km/h 8 mph /  12.9 km/h 97 % 0.01 in /  0.3 mm
22:07 36 °F /  2.2 °C 35.2 °F /  1.8 °C 30.3 in /  1026.6 hPa WNW 1 mph /  1.6 km/h 7 mph /  11.3 km/h 97 % 0.01 in /  0.3 mm
22:12 36.1 °F /  2.3 °C 35.4 °F /  1.9 °C 30.3 in /  1026.6 hPa WNW 5 mph /  8.0 km/h 7 mph /  11.3 km/h 97 % 0.01 in /  0.3 mm
22:17 36.1 °F /  2.3 °C 35.4 °F /  1.9 °C 30.3 in /  1026.6 hPa WNW 5 mph /  8.0 km/h 9 mph /  14.5 km/h 97 % 0.01 in /  0.3 mm
22:22 36.3 °F /  2.4 °C 35.6 °F /  2.0 °C 30.3 in /  1027.0 hPa WNW 5 mph /  8.0 km/h 9 mph /  14.5 km/h 97 % 0.01 in /  0.3 mm
22:27 36.1 °F /  2.3 °C 35.4 °F /  1.9 °C 30.3 in /  1027.0 hPa West 2 mph /  3.2 km/h 9 mph /  14.5 km/h 97 % 0.01 in /  0.3 mm
22:32 36.1 °F /  2.3 °C 35.4 °F /  1.9 °C 30.3 in /  1027.0 hPa North 1 mph /  1.6 km/h 8 mph /  12.9 km/h 97 % 0.01 in /  0.3 mm
22:37 36.1 °F /  2.3 °C 35.4 °F /  1.9 °C 30.3 in /  1027.0 hPa WNW 2 mph /  3.2 km/h 8 mph /  12.9 km/h 97 % 0.01 in /  0.3 mm
22:42 36.1 °F /  2.3 °C 35.4 °F /  1.9 °C 30.3 in /  1027.0 hPa WNW 1 mph /  1.6 km/h 5 mph /  8.0 km/h 97 % 0 in /  0.0 mm
22:52 36 °F /  2.2 °C 34.9 °F /  1.6 °C 30.3 in /  1027.0 hPa WNW 2 mph /  3.2 km/h 5 mph /  8.0 km/h 96 % 0 in /  0.0 mm
22:57 36 °F /  2.2 °C 35.2 °F /  1.8 °C 30.3 in /  1027.0 hPa NW 1 mph /  1.6 km/h 6 mph /  9.7 km/h 97 % 0 in /  0.0 mm
23:02 36 °F /  2.2 °C 34.9 °F /  1.6 °C 30.3 in /  1027.0 hPa North 2 mph /  3.2 km/h 6 mph /  9.7 km/h 96 % 0 in /  0.0 mm
23:07 36 °F /  2.2 °C 34.9 °F /  1.6 °C 30.3 in /  1027.0 hPa WNW 4 mph /  6.4 km/h 6 mph /  9.7 km/h 96 % 0 in /  0.0 mm
23:12 36 °F /  2.2 °C 34.9 °F /  1.6 °C 30.3 in /  1027.0 hPa West 3 mph /  4.8 km/h 7 mph /  11.3 km/h 96 % 0 in /  0.0 mm
23:17 36 °F /  2.2 °C 34.9 °F /  1.6 °C 30.3 in /  1027.0 hPa Calm   7 mph /  11.3 km/h 96 % 0 in /  0.0 mm
23:22 36 °F /  2.2 °C 34.9 °F /  1.6 °C 30.3 in /  1027.3 hPa NW 3 mph /  4.8 km/h 7 mph /  11.3 km/h 96 % 0 in /  0.0 mm
23:27 36 °F /  2.2 °C 34.9 °F /  1.6 °C 30.3 in /  1027.3 hPa NW 3 mph /  4.8 km/h 7 mph /  11.3 km/h 96 % 0 in /  0.0 mm
23:32 36 °F /  2.2 °C 34.9 °F /  1.6 °C 30.3 in /  1027.3 hPa NNW 3 mph /  4.8 km/h 5 mph /  8.0 km/h 96 % 0 in /  0.0 mm
23:37 36 °F /  2.2 °C 34.9 °F /  1.6 °C 30.3 in /  1027.3 hPa NW 2 mph /  3.2 km/h 5 mph /  8.0 km/h 96 % 0 in /  0.0 mm
23:42 36 °F /  2.2 °C 34.9 °F /  1.6 °C 30.3 in /  1027.3 hPa NW 1 mph /  1.6 km/h 5 mph /  8.0 km/h 96 % 0 in /  0.0 mm
Meteo18
Compliments of Weather Underground - 4 mb

Script developed by  Jim McMurry - jmcmurry@mwt.net Adapted for the template by  Wim van der Kuil - Leuven-Template.eu

You find our weather info also at:

European Weather Network

Weather Underground

Equipment we use:

Weather-station
Davis Vue

Weather-program
Meteohub

Weather-server
Raspberry PI 2 B+

Provider
1 and 1

Davis Vue

Meteohub

Raspberry PI 2 B+

1 and 1